createdAt,value
2022-09-21T00:00:38.297Z,4.70
2022-09-21T00:01:38.346Z,3.00
2022-09-21T00:02:38.668Z,6.70
2022-09-21T00:03:38.272Z,4.40
2022-09-21T00:04:38.270Z,3.10
2022-09-21T00:05:38.251Z,3.10
2022-09-21T00:06:38.241Z,4.10
2022-09-21T00:07:38.218Z,3.90
2022-09-21T00:08:38.561Z,4.10
2022-09-21T00:09:38.199Z,6.80
2022-09-21T00:10:38.188Z,3.80
2022-09-21T00:11:38.184Z,3.70
2022-09-21T00:12:38.503Z,4.50
2022-09-21T00:13:38.170Z,3.10
2022-09-21T00:14:38.153Z,3.40
2022-09-21T00:15:38.121Z,4.50
2022-09-21T00:16:38.176Z,3.90
2022-09-21T00:17:38.113Z,4.20
2022-09-21T00:18:38.372Z,3.40
2022-09-21T00:19:38.081Z,6.70
2022-09-21T00:20:38.112Z,4.60
2022-09-21T00:21:38.066Z,4.00
2022-09-21T00:22:38.049Z,4.30
2022-09-21T00:23:38.051Z,4.10
2022-09-21T00:24:38.022Z,4.80
2022-09-21T00:25:38.011Z,5.50
2022-09-21T00:26:38.035Z,6.10
2022-09-21T00:27:37.996Z,3.70
2022-09-21T00:28:38.305Z,3.30
2022-09-21T00:29:37.963Z,3.20
2022-09-21T00:30:37.966Z,5.80
2022-09-21T00:31:37.972Z,5.80
2022-09-21T00:32:37.938Z,5.10
2022-09-21T00:33:37.914Z,4.10
2022-09-21T00:34:38.213Z,4.60
2022-09-21T00:35:37.895Z,4.40
2022-09-21T00:36:37.905Z,4.10
2022-09-21T00:37:37.887Z,4.70
2022-09-21T00:38:37.866Z,4.40
2022-09-21T00:39:38.174Z,5.80
2022-09-21T00:40:37.905Z,3.90
2022-09-21T00:41:37.835Z,4.00
2022-09-21T00:42:37.816Z,4.30
2022-09-21T00:43:37.805Z,3.70
2022-09-21T00:44:37.797Z,3.90
2022-09-21T00:45:38.027Z,4.50
2022-09-21T00:46:37.794Z,6.10
2022-09-21T00:47:38.067Z,5.30
2022-09-21T00:48:37.768Z,3.70
2022-09-21T00:49:37.749Z,4.50
2022-09-21T00:50:37.748Z,5.50
2022-09-21T00:51:37.708Z,4.80
2022-09-21T00:52:37.728Z,5.10
2022-09-21T00:53:37.704Z,4.30
2022-09-21T00:54:37.678Z,3.90
2022-09-21T00:55:37.666Z,5.30
2022-09-21T00:56:37.670Z,4.70
2022-09-21T00:57:37.657Z,4.80
2022-09-21T00:58:37.940Z,6.60
2022-09-21T00:59:37.639Z,6.90
2022-09-21T01:00:37.719Z,3.90
2022-09-21T01:01:37.613Z,6.60
2022-09-21T01:02:37.589Z,4.30
2022-09-21T01:03:37.582Z,5.50
2022-09-21T01:04:37.829Z,3.90
2022-09-21T01:05:37.560Z,4.00
2022-09-21T01:06:37.553Z,4.10
2022-09-21T01:07:37.541Z,6.80
2022-09-21T01:08:37.534Z,5.40
2022-09-21T01:09:37.524Z,4.80
2022-09-21T01:10:37.523Z,4.00
2022-09-21T01:11:37.494Z,4.60
2022-09-21T01:12:37.471Z,4.40
2022-09-21T01:13:37.465Z,4.00
2022-09-21T01:14:37.468Z,4.40
2022-09-21T01:15:37.642Z,4.70
2022-09-21T01:16:37.466Z,4.30
2022-09-21T01:17:37.420Z,7.30
2022-09-21T01:18:37.720Z,6.00
2022-09-21T01:19:37.407Z,5.70
2022-09-21T01:20:37.396Z,7.10
2022-09-21T01:21:37.374Z,6.10
2022-09-21T01:22:37.363Z,4.40
2022-09-21T01:23:37.365Z,5.40
2022-09-21T01:24:37.623Z,5.00
2022-09-21T01:25:37.347Z,4.90
2022-09-21T01:26:37.314Z,3.80
2022-09-21T01:27:37.317Z,4.10
2022-09-21T01:28:37.299Z,4.90
2022-09-21T01:29:37.577Z,4.00
2022-09-21T01:30:37.289Z,5.20
2022-09-21T01:31:37.309Z,5.90
2022-09-21T01:32:37.258Z,5.10
2022-09-21T01:33:37.235Z,5.10
2022-09-21T01:34:37.217Z,4.90
2022-09-21T01:35:37.476Z,6.40
2022-09-21T01:36:37.201Z,4.40
2022-09-21T01:37:37.211Z,4.90
2022-09-21T01:38:37.176Z,6.60
2022-09-21T01:39:37.188Z,4.80
2022-09-21T01:40:37.203Z,4.50
2022-09-21T01:41:37.471Z,5.00
2022-09-21T01:42:37.148Z,6.00
2022-09-21T01:43:37.140Z,5.40
2022-09-21T01:44:37.120Z,7.70
2022-09-21T01:45:37.158Z,5.70
2022-09-21T01:46:37.108Z,5.50
2022-09-21T01:47:37.402Z,4.30
2022-09-21T01:48:37.084Z,5.30
2022-09-21T01:49:37.081Z,5.00
2022-09-21T01:50:37.044Z,5.70
2022-09-21T01:51:37.059Z,3.80
2022-09-21T01:52:37.018Z,5.00
2022-09-21T01:53:37.046Z,4.60
2022-09-21T01:54:36.992Z,5.60
2022-09-21T01:55:37.001Z,4.40
2022-09-21T01:56:36.992Z,4.70
2022-09-21T01:57:36.960Z,4.20
2022-09-21T01:58:37.273Z,5.10
2022-09-21T01:59:36.940Z,4.50
2022-09-21T02:00:36.938Z,5.00
2022-09-21T02:01:36.951Z,5.10
2022-09-21T02:02:36.903Z,4.60
2022-09-21T02:03:36.906Z,4.70
2022-09-21T02:04:37.122Z,5.90
2022-09-21T02:05:36.885Z,5.90
2022-09-21T02:06:36.875Z,4.20
2022-09-21T02:07:36.866Z,5.50
2022-09-21T02:08:36.846Z,4.60
2022-09-21T02:09:36.823Z,6.40
2022-09-21T02:10:37.114Z,4.20
2022-09-21T02:11:36.804Z,5.60
2022-09-21T02:12:36.805Z,6.70
2022-09-21T02:13:36.800Z,6.50
2022-09-21T02:14:36.763Z,5.20
2022-09-21T02:15:36.753Z,5.20
2022-09-21T02:16:37.008Z,5.80
2022-09-21T02:17:36.749Z,6.70
2022-09-21T02:18:36.735Z,4.50
2022-09-21T02:19:36.712Z,3.70
2022-09-21T02:20:36.702Z,3.50
2022-09-21T02:21:36.725Z,4.30
2022-09-21T02:22:36.684Z,4.30
2022-09-21T02:23:36.664Z,5.50
2022-09-21T02:24:36.656Z,4.40
2022-09-21T02:25:36.991Z,4.60
2022-09-21T02:26:36.626Z,5.60
2022-09-21T02:27:36.625Z,4.80
2022-09-21T02:28:36.623Z,4.90
2022-09-21T02:29:36.595Z,4.40
2022-09-21T02:30:36.591Z,5.70
2022-09-21T02:31:37.793Z,5.40
2022-09-21T02:32:36.586Z,6.00
2022-09-21T02:33:36.568Z,7.40
2022-09-21T02:34:36.560Z,6.70
2022-09-21T02:35:36.529Z,7.40
2022-09-21T02:36:36.529Z,5.00
2022-09-21T02:37:36.807Z,5.40
2022-09-21T02:38:36.828Z,4.00
2022-09-21T02:39:36.489Z,5.10
2022-09-21T02:40:36.500Z,5.20
2022-09-21T02:41:36.473Z,4.20
2022-09-21T02:42:36.461Z,6.00
2022-09-21T02:43:36.454Z,7.00
2022-09-21T02:44:36.741Z,4.20
2022-09-21T02:45:36.409Z,6.30
2022-09-21T02:46:36.481Z,3.90
2022-09-21T02:47:36.424Z,5.60
2022-09-21T02:48:36.391Z,4.30
2022-09-21T02:49:36.361Z,5.30
2022-09-21T02:50:36.350Z,4.50
2022-09-21T02:51:36.361Z,6.20
2022-09-21T02:52:36.329Z,4.60
2022-09-21T02:53:36.674Z,5.00
2022-09-21T02:54:36.301Z,3.80
2022-09-21T02:55:36.313Z,5.40
2022-09-21T02:56:36.536Z,5.40
2022-09-21T02:57:36.285Z,5.80
2022-09-21T02:58:36.272Z,6.00
2022-09-21T02:59:36.272Z,4.20
2022-09-21T03:00:36.282Z,4.10
2022-09-21T03:01:36.300Z,4.10
2022-09-21T03:02:36.263Z,4.40
2022-09-21T03:03:36.216Z,5.10
2022-09-21T03:04:36.192Z,5.50
2022-09-21T03:05:36.217Z,7.40
2022-09-21T03:06:36.177Z,5.80
2022-09-21T03:07:36.167Z,5.70
2022-09-21T03:08:36.174Z,4.10
2022-09-21T03:09:36.144Z,4.30
2022-09-21T03:10:36.124Z,5.70
2022-09-21T03:11:36.122Z,6.70
2022-09-21T03:12:36.122Z,4.90
2022-09-21T03:13:36.109Z,4.30
2022-09-21T03:14:36.154Z,3.90
2022-09-21T03:15:36.124Z,5.10
2022-09-21T03:16:36.059Z,4.10
2022-09-21T03:17:36.036Z,5.80
2022-09-21T03:18:36.358Z,5.40
2022-09-21T03:19:36.038Z,4.40
2022-09-21T03:20:36.060Z,4.30
2022-09-21T03:21:36.059Z,4.50
2022-09-21T03:22:35.999Z,5.40
2022-09-21T03:23:35.988Z,3.90
2022-09-21T03:24:36.267Z,7.30
2022-09-21T03:25:35.947Z,3.80
2022-09-21T03:26:35.951Z,5.90
2022-09-21T03:27:35.941Z,3.40
2022-09-21T03:28:35.940Z,5.90
2022-09-21T03:29:36.011Z,5.70
2022-09-21T03:30:35.916Z,5.20
2022-09-21T03:31:35.879Z,3.80
2022-09-21T03:32:35.870Z,7.20
2022-09-21T03:33:35.871Z,6.90
2022-09-21T03:34:35.863Z,5.10
2022-09-21T03:35:35.849Z,5.60
2022-09-21T03:36:35.862Z,4.80
2022-09-21T03:37:39.264Z,4.60
2022-09-21T03:38:37.029Z,6.60
2022-09-21T03:39:35.789Z,5.10
2022-09-21T03:40:35.797Z,4.60
2022-09-21T03:41:35.781Z,5.80
2022-09-21T03:42:35.765Z,4.20
2022-09-21T03:43:35.748Z,5.30
2022-09-21T03:44:35.749Z,6.50
2022-09-21T03:45:35.720Z,6.40
2022-09-21T03:46:35.723Z,4.70
2022-09-21T03:47:42.722Z,5.10
2022-09-21T03:48:35.681Z,6.00
2022-09-21T03:49:35.673Z,5.10
2022-09-21T03:50:35.943Z,4.90
2022-09-21T03:51:35.701Z,3.90
2022-09-21T03:52:35.633Z,5.30
2022-09-21T03:53:35.663Z,6.20
2022-09-21T03:54:35.627Z,5.30
2022-09-21T03:55:35.623Z,4.60
2022-09-21T03:56:35.606Z,5.40
2022-09-21T03:57:35.574Z,6.60
2022-09-21T03:58:35.578Z,5.00
2022-09-21T03:59:35.579Z,5.80
2022-09-21T04:00:35.577Z,6.60
2022-09-21T04:01:35.553Z,5.10
2022-09-21T04:02:35.569Z,6.70
2022-09-21T04:03:35.516Z,4.90
2022-09-21T04:04:35.517Z,3.40
2022-09-21T04:05:35.507Z,4.90
2022-09-21T04:06:35.735Z,6.00
2022-09-21T04:07:35.481Z,3.50
2022-09-21T04:08:35.447Z,4.40
2022-09-21T04:09:35.689Z,6.30
2022-09-21T04:10:35.687Z,5.10
2022-09-21T04:11:35.726Z,5.10
2022-09-21T04:12:35.407Z,5.50
2022-09-21T04:13:35.396Z,5.50
2022-09-21T04:14:35.429Z,4.00
2022-09-21T04:15:35.385Z,5.80
2022-09-21T04:16:35.688Z,4.20
2022-09-21T04:17:35.362Z,4.70
2022-09-21T04:18:35.389Z,6.20
2022-09-21T04:19:35.326Z,4.90
2022-09-21T04:20:35.340Z,5.30
2022-09-21T04:21:35.311Z,5.90
2022-09-21T04:22:37.815Z,4.60
2022-09-21T04:23:36.292Z,5.00
2022-09-21T04:24:35.282Z,5.20
2022-09-21T04:25:35.270Z,5.20
2022-09-21T04:26:35.273Z,4.70
2022-09-21T04:27:35.489Z,5.90
2022-09-21T04:28:35.222Z,5.80
2022-09-21T04:29:35.209Z,4.80
2022-09-21T04:30:37.680Z,4.60
2022-09-21T04:31:35.200Z,5.60
2022-09-21T04:32:35.493Z,6.20
2022-09-21T04:33:35.169Z,5.10
2022-09-21T04:34:35.151Z,4.90
2022-09-21T04:35:35.163Z,5.40
2022-09-21T04:36:36.810Z,4.70
2022-09-21T04:37:35.436Z,5.10
2022-09-21T04:38:35.101Z,5.90
2022-09-21T04:39:35.105Z,8.60
2022-09-21T04:40:35.374Z,6.80
2022-09-21T04:41:35.069Z,5.30
2022-09-21T04:42:35.075Z,6.10
2022-09-21T04:43:35.041Z,6.90
2022-09-21T04:44:35.043Z,4.90
2022-09-21T04:45:35.275Z,6.60
2022-09-21T04:46:35.046Z,6.90
2022-09-21T04:47:35.014Z,5.00
2022-09-21T04:48:34.983Z,5.40
2022-09-21T04:49:34.974Z,6.80
2022-09-21T04:50:35.237Z,10.70
2022-09-21T04:51:34.957Z,8.90
2022-09-21T04:52:34.956Z,8.60
2022-09-21T04:53:34.923Z,17.30
2022-09-21T04:54:34.913Z,8.60
2022-09-21T04:55:35.224Z,10.80
2022-09-21T04:56:34.914Z,12.70
2022-09-21T04:57:35.126Z,9.40
2022-09-21T04:58:34.876Z,13.90
2022-09-21T04:59:34.854Z,14.20
2022-09-21T05:00:34.845Z,14.10
2022-09-21T05:01:34.997Z,13.90
2022-09-21T05:02:35.065Z,7.60
2022-09-21T05:03:34.860Z,10.70
2022-09-21T05:04:34.805Z,8.90
2022-09-21T05:05:34.784Z,6.10
2022-09-21T05:06:34.797Z,13.70
2022-09-21T05:07:34.778Z,7.70
2022-09-21T05:08:35.080Z,11.40
2022-09-21T05:09:34.757Z,8.70
2022-09-21T05:10:34.737Z,11.40
2022-09-21T05:11:34.717Z,7.60
2022-09-21T05:12:36.688Z,9.40
2022-09-21T05:13:34.697Z,8.10
2022-09-21T05:14:34.947Z,7.30
2022-09-21T05:15:34.715Z,9.00
2022-09-21T05:16:34.677Z,7.60
2022-09-21T05:17:34.662Z,8.80
2022-09-21T05:18:34.661Z,11.00
2022-09-21T05:19:34.631Z,6.60
2022-09-21T05:20:34.950Z,5.20
2022-09-21T05:21:34.606Z,6.60
2022-09-21T05:22:34.921Z,9.70
2022-09-21T05:23:34.578Z,8.90
2022-09-21T05:24:34.570Z,6.80
2022-09-21T05:25:34.572Z,5.60
2022-09-21T05:26:34.572Z,6.60
2022-09-21T05:27:34.529Z,10.30
2022-09-21T05:28:39.725Z,7.80
2022-09-21T05:29:35.510Z,6.30
2022-09-21T05:30:34.566Z,6.90
2022-09-21T05:31:34.582Z,6.50
2022-09-21T05:32:34.496Z,8.60
2022-09-21T05:33:34.470Z,6.00
2022-09-21T05:34:36.816Z,5.90
2022-09-21T05:35:34.462Z,6.60
2022-09-21T05:36:34.443Z,5.30
2022-09-21T05:37:34.443Z,6.50
2022-09-21T05:38:34.425Z,7.50
2022-09-21T05:39:34.391Z,6.00
2022-09-21T05:40:34.666Z,7.20
2022-09-21T05:41:34.406Z,6.30
2022-09-21T05:42:34.387Z,7.80
2022-09-21T05:43:34.686Z,7.40
2022-09-21T05:44:34.342Z,10.30
2022-09-21T05:45:34.339Z,6.90
2022-09-21T05:46:34.321Z,7.00
2022-09-21T05:47:34.538Z,6.40
2022-09-21T05:48:34.316Z,8.10
2022-09-21T05:49:34.273Z,5.80
2022-09-21T05:50:34.275Z,7.00
2022-09-21T05:51:34.273Z,6.30
2022-09-21T05:52:34.266Z,7.10
2022-09-21T05:53:34.540Z,4.50
2022-09-21T05:54:34.247Z,6.50
2022-09-21T05:55:34.218Z,6.70
2022-09-21T05:56:34.204Z,6.60
2022-09-21T05:57:34.520Z,6.80
2022-09-21T05:58:34.176Z,8.60
2022-09-21T05:59:34.182Z,8.50
2022-09-21T06:00:34.168Z,9.30
2022-09-21T06:01:34.222Z,7.40
2022-09-21T06:02:34.216Z,6.80
2022-09-21T06:03:34.177Z,5.80
2022-09-21T06:04:34.121Z,6.40
2022-09-21T06:05:34.097Z,11.50
2022-09-21T06:06:34.086Z,10.10
2022-09-21T06:07:34.102Z,7.50
2022-09-21T06:08:34.088Z,17.40
2022-09-21T06:09:34.057Z,10.20
2022-09-21T06:10:34.059Z,7.40
2022-09-21T06:11:34.022Z,10.00
2022-09-21T06:12:34.041Z,15.70
2022-09-21T06:13:34.006Z,7.50
2022-09-21T06:14:34.211Z,15.30
2022-09-21T06:15:33.998Z,8.50
2022-09-21T06:16:34.001Z,8.80
2022-09-21T06:17:34.010Z,12.70
2022-09-21T06:18:33.969Z,11.50
2022-09-21T06:19:33.938Z,10.80
2022-09-21T06:20:33.950Z,10.90
2022-09-21T06:21:33.929Z,8.00
2022-09-21T06:22:34.161Z,6.60
2022-09-21T06:23:33.904Z,9.10
2022-09-21T06:24:33.892Z,8.10
2022-09-21T06:25:33.862Z,8.00
2022-09-21T06:26:33.874Z,9.50
2022-09-21T06:27:33.891Z,7.30
2022-09-21T06:28:33.839Z,7.00
2022-09-21T06:29:33.853Z,8.40
2022-09-21T06:30:33.824Z,4.70
2022-09-21T06:31:33.801Z,11.40
2022-09-21T06:32:33.813Z,10.20
2022-09-21T06:33:33.785Z,8.60
2022-09-21T06:34:33.790Z,6.40
2022-09-21T06:35:33.764Z,5.90
2022-09-21T06:36:33.751Z,7.00
2022-09-21T06:37:33.740Z,5.70
2022-09-21T06:38:33.766Z,6.70
2022-09-21T06:39:33.723Z,5.90
2022-09-21T06:40:33.717Z,5.60
2022-09-21T06:41:33.697Z,7.50
2022-09-21T06:42:33.693Z,6.40
2022-09-21T06:43:33.655Z,6.50
2022-09-21T06:44:33.707Z,7.60
2022-09-21T06:45:33.798Z,7.10
2022-09-21T06:46:33.657Z,7.20
2022-09-21T06:47:33.636Z,13.60
2022-09-21T06:48:33.604Z,9.80
2022-09-21T06:49:33.607Z,10.60
2022-09-21T06:50:33.603Z,12.10
2022-09-21T06:51:33.573Z,19.50
2022-09-21T06:52:33.578Z,29.80
2022-09-21T06:53:33.545Z,10.00
2022-09-21T06:54:33.548Z,8.00
2022-09-21T06:55:33.835Z,19.40
2022-09-21T06:56:33.515Z,11.10
2022-09-21T06:57:33.541Z,21.80
2022-09-21T06:58:33.508Z,24.80
2022-09-21T06:59:33.475Z,13.90
2022-09-21T07:00:33.466Z,15.10
2022-09-21T07:01:33.516Z,21.40
2022-09-21T07:02:33.470Z,28.20
2022-09-21T07:03:33.460Z,22.50
2022-09-21T07:04:33.449Z,11.00
2022-09-21T07:05:33.407Z,10.60
2022-09-21T07:06:33.397Z,9.80
2022-09-21T07:07:33.720Z,15.10
2022-09-21T07:10:34.354Z,10.30
2022-09-21T07:11:33.355Z,8.80
2022-09-21T07:12:33.351Z,9.40
2022-09-21T07:13:33.520Z,9.80
2022-09-21T07:14:33.323Z,8.70
2022-09-21T07:15:33.331Z,7.40
2022-09-21T07:16:33.350Z,9.40
2022-09-21T07:17:33.292Z,10.10
2022-09-21T07:18:42.542Z,8.50
2022-09-21T07:19:34.262Z,9.50
2022-09-21T07:20:33.453Z,8.20
2022-09-21T07:21:33.240Z,8.50
2022-09-21T07:22:33.233Z,8.50
2022-09-21T07:23:33.890Z,6.60
2022-09-21T07:24:33.210Z,7.60
2022-09-21T07:25:33.180Z,7.70
2022-09-21T07:26:33.184Z,7.80
2022-09-21T07:27:33.162Z,7.20
2022-09-21T07:28:33.361Z,7.60
2022-09-21T07:29:33.151Z,8.10
2022-09-21T07:30:33.132Z,8.00
2022-09-21T07:31:33.145Z,6.30
2022-09-21T07:32:33.132Z,7.50
2022-09-21T07:33:35.997Z,6.60
2022-09-21T07:34:33.146Z,7.10
2022-09-21T07:35:33.093Z,6.60
2022-09-21T07:36:33.074Z,7.50
2022-09-21T07:37:33.107Z,6.90
2022-09-21T07:38:33.035Z,6.60
2022-09-21T07:39:33.046Z,8.10
2022-09-21T07:40:33.068Z,8.20
2022-09-21T07:41:33.345Z,8.10
2022-09-21T07:42:33.006Z,6.40
2022-09-21T07:43:33.085Z,6.80
2022-09-21T07:44:32.998Z,6.50
2022-09-21T07:45:32.999Z,9.10
2022-09-21T07:46:32.974Z,5.80
2022-09-21T07:47:32.971Z,7.70
2022-09-21T07:48:32.936Z,7.30
2022-09-21T07:49:32.905Z,6.90
2022-09-21T07:50:32.909Z,7.40
2022-09-21T07:51:32.897Z,7.20
2022-09-21T07:52:32.916Z,8.50
2022-09-21T07:53:32.870Z,7.40
2022-09-21T07:54:33.137Z,6.80
2022-09-21T07:55:32.830Z,9.70
2022-09-21T07:56:32.828Z,6.90
2022-09-21T07:57:32.830Z,6.90
2022-09-21T07:58:32.801Z,6.70
2022-09-21T07:59:32.841Z,5.80
2022-09-21T08:00:32.858Z,8.50
2022-09-21T08:01:32.779Z,6.00
2022-09-21T08:02:32.869Z,5.90
2022-09-21T08:03:32.739Z,6.30
2022-09-21T08:04:32.738Z,6.20
2022-09-21T08:05:32.736Z,6.20
2022-09-21T08:06:32.723Z,8.30
2022-09-21T08:07:32.735Z,5.40
2022-09-21T08:08:32.720Z,6.40
2022-09-21T08:09:32.723Z,5.40
2022-09-21T08:10:33.001Z,6.60
2022-09-21T08:11:32.664Z,6.50
2022-09-21T08:12:32.642Z,6.30
2022-09-21T08:13:32.632Z,6.50
2022-09-21T08:14:32.632Z,5.90
2022-09-21T08:15:48.646Z,7.90
2022-09-21T08:16:33.744Z,8.90
2022-09-21T08:17:32.611Z,5.40
2022-09-21T08:18:32.572Z,4.70
2022-09-21T08:19:32.572Z,5.50
2022-09-21T08:20:32.567Z,6.50
2022-09-21T08:21:32.546Z,5.90
2022-09-21T08:22:32.553Z,4.70
2022-09-21T08:23:32.526Z,4.20
2022-09-21T08:24:32.514Z,4.90
2022-09-21T08:25:32.505Z,8.30
2022-09-21T08:26:34.754Z,7.00
2022-09-21T08:27:32.586Z,4.70
2022-09-21T08:28:32.468Z,4.50
2022-09-21T08:29:32.501Z,5.20
2022-09-21T08:30:32.636Z,5.30
2022-09-21T08:31:32.464Z,5.30
2022-09-21T08:32:49.996Z,5.50
2022-09-21T08:33:33.408Z,5.40
2022-09-21T08:34:32.586Z,5.10
2022-09-21T08:35:32.388Z,6.00
2022-09-21T08:36:32.356Z,4.50
2022-09-21T08:37:32.378Z,6.10
2022-09-21T08:38:32.348Z,5.70
2022-09-21T08:39:32.540Z,6.00
2022-09-21T08:40:32.687Z,4.90
2022-09-21T08:41:32.320Z,3.30
2022-09-21T08:42:32.313Z,4.00
2022-09-21T08:43:32.277Z,5.20
2022-09-21T08:44:32.473Z,5.00
2022-09-21T08:45:32.272Z,4.70
2022-09-21T08:46:32.629Z,4.40
2022-09-21T08:47:32.255Z,5.20
2022-09-21T08:48:36.635Z,3.90
2022-09-21T08:49:32.221Z,4.40
2022-09-21T08:50:32.198Z,4.80
2022-09-21T08:51:32.200Z,4.80
2022-09-21T08:52:32.483Z,3.80
2022-09-21T08:53:32.183Z,4.70
2022-09-21T08:54:32.163Z,4.70
2022-09-21T08:55:32.140Z,3.80
2022-09-21T08:56:47.443Z,4.60
2022-09-21T08:57:33.135Z,4.80
2022-09-21T08:58:32.115Z,4.10
2022-09-21T08:59:32.105Z,3.90
2022-09-21T09:00:32.123Z,3.80
2022-09-21T09:01:32.101Z,4.80
2022-09-21T09:02:32.298Z,4.20
2022-09-21T09:03:32.043Z,3.70
2022-09-21T09:04:32.032Z,2.30
2022-09-21T09:05:32.038Z,1.90
2022-09-21T09:06:32.018Z,4.10
2022-09-21T09:07:32.025Z,4.20
2022-09-21T09:08:32.009Z,5.70
2022-09-21T09:09:31.990Z,3.10
2022-09-21T09:10:31.986Z,3.00
2022-09-21T09:11:32.018Z,4.10
2022-09-21T09:12:31.946Z,3.10
2022-09-21T09:13:31.926Z,4.10
2022-09-21T09:14:32.160Z,3.50
2022-09-21T09:15:31.919Z,1.60
2022-09-21T09:16:31.969Z,1.60
2022-09-21T09:17:31.889Z,3.40
2022-09-21T09:18:31.867Z,2.80
2022-09-21T09:19:31.877Z,3.40
2022-09-21T09:20:32.159Z,1.70
2022-09-21T09:21:32.638Z,2.60
2022-09-21T09:22:31.841Z,1.60
2022-09-21T09:23:31.832Z,1.70
2022-09-21T09:24:31.799Z,2.60
2022-09-21T09:25:31.818Z,2.10
2022-09-21T09:26:32.109Z,2.50
2022-09-21T09:27:31.779Z,2.90
2022-09-21T09:28:31.771Z,1.40
2022-09-21T09:29:31.763Z,2.50
2022-09-21T09:30:31.753Z,3.10
2022-09-21T09:31:31.746Z,1.40
2022-09-21T09:32:31.991Z,2.70
2022-09-21T09:33:31.701Z,3.10
2022-09-21T09:34:31.703Z,2.70
2022-09-21T09:35:31.685Z,3.00
2022-09-21T09:36:56.833Z,2.10
2022-09-21T09:37:32.976Z,2.00
2022-09-21T09:38:31.643Z,3.30
2022-09-21T09:39:31.634Z,2.10
2022-09-21T09:40:31.675Z,3.00
2022-09-21T09:41:31.628Z,2.50
2022-09-21T09:42:31.609Z,1.70
2022-09-21T09:43:31.885Z,3.90
2022-09-21T09:44:31.584Z,4.20
2022-09-21T09:45:31.589Z,1.70
2022-09-21T09:46:31.817Z,1.40
2022-09-21T09:47:31.555Z,2.10
2022-09-21T09:48:38.644Z,1.80
2022-09-21T09:49:31.541Z,2.40
2022-09-21T09:50:31.517Z,0.80
2022-09-21T09:51:31.503Z,2.00
2022-09-21T09:52:31.686Z,2.00
2022-09-21T09:53:31.490Z,2.20
2022-09-21T09:54:31.481Z,4.60
2022-09-21T09:55:31.461Z,4.30
2022-09-21T09:56:31.444Z,1.00
2022-09-21T09:57:31.418Z,1.90
2022-09-21T09:58:31.421Z,1.20
2022-09-21T09:59:31.610Z,0.80
2022-09-21T10:00:31.400Z,3.00
2022-09-21T10:01:31.420Z,1.50
2022-09-21T10:02:31.359Z,2.00
2022-09-21T10:03:31.703Z,2.20
2022-09-21T10:04:31.390Z,2.30
2022-09-21T10:05:31.332Z,1.90
2022-09-21T10:06:31.311Z,1.30
2022-09-21T10:07:31.323Z,2.20
2022-09-21T10:08:31.292Z,3.00
2022-09-21T10:09:31.581Z,2.30
2022-09-21T10:10:31.263Z,2.20
2022-09-21T10:11:31.262Z,1.10
2022-09-21T10:12:31.242Z,1.80
2022-09-21T10:13:31.250Z,2.30
2022-09-21T10:14:31.537Z,0.90
2022-09-21T10:15:31.228Z,0.70
2022-09-21T10:16:31.257Z,1.60
2022-09-21T10:17:31.269Z,1.70
2022-09-21T10:18:31.206Z,2.00
2022-09-21T10:19:31.378Z,2.10
2022-09-21T10:20:31.155Z,3.20
2022-09-21T10:21:31.246Z,2.00
2022-09-21T10:22:31.158Z,6.10
2022-09-21T10:23:31.138Z,25.70
2022-09-21T10:24:31.106Z,18.20
2022-09-21T10:25:31.366Z,5.90
2022-09-21T10:26:31.101Z,4.80
2022-09-21T10:27:31.077Z,7.40
2022-09-21T10:28:31.083Z,2.90
2022-09-21T10:29:31.069Z,2.70
2022-09-21T10:30:31.375Z,2.10
2022-09-21T10:31:31.082Z,1.70
2022-09-21T10:32:31.034Z,3.30
2022-09-21T10:33:31.023Z,12.70
2022-09-21T10:34:31.003Z,6.10
2022-09-21T10:35:30.980Z,2.70
2022-09-21T10:36:31.302Z,3.30
2022-09-21T10:37:30.960Z,3.90
2022-09-21T10:38:30.950Z,3.80
2022-09-21T10:39:30.946Z,4.00
2022-09-21T10:40:31.071Z,4.30
2022-09-21T10:41:30.913Z,18.00
2022-09-21T10:42:31.212Z,7.60
2022-09-21T10:43:35.921Z,2.60
2022-09-21T10:44:30.898Z,4.20
2022-09-21T10:45:30.864Z,3.60
2022-09-21T10:46:31.008Z,17.00
2022-09-21T10:47:30.857Z,8.10
2022-09-21T10:48:31.128Z,9.50
2022-09-21T10:49:31.135Z,8.70
2022-09-21T10:50:30.804Z,14.40
2022-09-21T10:51:30.796Z,4.00
2022-09-21T10:52:30.799Z,9.00
2022-09-21T10:53:30.976Z,9.00
2022-09-21T10:54:30.777Z,6.80
2022-09-21T10:55:30.770Z,22.60
2022-09-21T10:56:30.748Z,7.80
2022-09-21T10:57:30.740Z,8.50
2022-09-21T10:58:30.730Z,12.50
2022-09-21T10:59:30.978Z,11.80
2022-09-21T11:00:30.690Z,2.60
2022-09-21T11:01:30.736Z,3.50
2022-09-21T11:02:30.691Z,7.90
2022-09-21T11:03:30.673Z,7.80
2022-09-21T11:04:30.660Z,8.70
2022-09-21T11:05:31.079Z,9.80
2022-09-21T11:06:30.619Z,8.90
2022-09-21T11:07:30.612Z,7.90
2022-09-21T11:08:30.605Z,7.30
2022-09-21T11:09:30.803Z,4.60
2022-09-21T11:10:34.113Z,4.20
2022-09-21T11:11:30.571Z,2.50
2022-09-21T11:12:30.551Z,2.20
2022-09-21T11:13:30.542Z,3.40
2022-09-21T11:14:30.809Z,2.80
2022-09-21T11:15:30.589Z,2.00
2022-09-21T11:16:30.515Z,1.50
2022-09-21T11:17:30.516Z,1.90
2022-09-21T11:18:30.487Z,4.10
2022-09-21T11:19:30.486Z,2.20
2022-09-21T11:20:30.727Z,1.60
2022-09-21T11:21:30.454Z,1.70
2022-09-21T11:22:30.453Z,3.60
2022-09-21T11:23:30.438Z,3.50
2022-09-21T11:24:30.413Z,2.30
2022-09-21T11:25:30.423Z,1.90
2022-09-21T11:26:30.433Z,1.60
2022-09-21T11:27:30.387Z,1.00
2022-09-21T11:28:30.691Z,1.40
2022-09-21T11:29:30.372Z,2.50
2022-09-21T11:30:30.368Z,1.40
2022-09-21T11:31:30.340Z,6.20
2022-09-21T11:32:30.416Z,3.40
2022-09-21T11:33:30.331Z,2.80
2022-09-21T11:34:30.337Z,3.90
2022-09-21T11:35:30.278Z,2.60
2022-09-21T11:36:30.286Z,4.20
2022-09-21T11:37:30.302Z,2.80
2022-09-21T11:38:34.309Z,2.90
2022-09-21T11:39:31.453Z,1.00
2022-09-21T11:40:30.301Z,2.10
2022-09-21T11:41:30.212Z,1.60
2022-09-21T11:42:30.206Z,2.60
2022-09-21T11:43:30.190Z,2.80
2022-09-21T11:44:30.494Z,1.90
2022-09-21T11:45:30.187Z,2.40
2022-09-21T11:46:30.188Z,0.70
2022-09-21T11:47:30.143Z,1.40
2022-09-21T11:48:30.144Z,2.20
2022-09-21T11:49:30.121Z,2.70
2022-09-21T11:50:31.677Z,1.60
2022-09-21T11:51:30.093Z,1.90
2022-09-21T11:52:30.106Z,2.60
2022-09-21T11:53:30.090Z,3.70
2022-09-21T11:54:30.062Z,1.80
2022-09-21T11:55:30.058Z,13.70
2022-09-21T11:56:30.068Z,27.60
2022-09-21T11:57:30.049Z,10.70
2022-09-21T11:58:30.025Z,16.40
2022-09-21T11:59:30.345Z,10.50
2022-09-21T12:00:30.006Z,18.20
2022-09-21T12:01:29.994Z,14.40
2022-09-21T12:02:30.063Z,20.10
2022-09-21T12:03:29.957Z,26.30
2022-09-21T12:04:29.961Z,7.40
2022-09-21T12:05:30.265Z,11.50
2022-09-21T12:06:29.917Z,4.60
2022-09-21T12:07:30.151Z,6.20
2022-09-21T12:08:29.898Z,10.10
2022-09-21T12:09:29.890Z,1.90
2022-09-21T12:10:29.882Z,9.00
2022-09-21T12:11:29.859Z,5.00
2022-09-21T12:12:30.167Z,3.60
2022-09-21T12:13:29.842Z,5.20
2022-09-21T12:14:29.891Z,3.50
2022-09-21T12:15:29.852Z,3.30
2022-09-21T12:16:29.900Z,3.40
2022-09-21T12:17:29.814Z,3.90
2022-09-21T12:18:29.797Z,2.60
2022-09-21T12:19:29.782Z,2.50
2022-09-21T12:20:30.087Z,2.30
2022-09-21T12:21:29.746Z,2.70
2022-09-21T12:22:29.732Z,3.00
2022-09-21T12:23:29.718Z,2.40
2022-09-21T12:24:31.922Z,3.30
2022-09-21T12:25:29.966Z,1.80
2022-09-21T12:26:29.705Z,4.70
2022-09-21T12:27:29.674Z,2.10
2022-09-21T12:28:29.654Z,1.10
2022-09-21T12:29:29.645Z,3.70
2022-09-21T12:30:29.987Z,4.10
2022-09-21T12:31:29.647Z,2.20
2022-09-21T12:32:29.630Z,3.10
2022-09-21T12:33:29.619Z,2.30
2022-09-21T12:34:29.587Z,3.00
2022-09-21T12:35:29.791Z,3.60
2022-09-21T12:36:29.836Z,1.80
2022-09-21T12:37:29.579Z,2.40
2022-09-21T12:38:29.637Z,2.40
2022-09-21T12:39:29.728Z,1.40
2022-09-21T12:40:29.560Z,3.00
2022-09-21T12:41:29.791Z,1.70
2022-09-21T12:42:29.524Z,2.40
2022-09-21T12:43:29.496Z,2.50
2022-09-21T12:44:29.502Z,2.30
2022-09-21T12:45:29.479Z,2.60
2022-09-21T12:46:29.838Z,2.30
2022-09-21T12:47:29.453Z,1.60
2022-09-21T12:48:29.450Z,1.80
2022-09-21T12:49:29.441Z,2.90
2022-09-21T12:50:29.415Z,2.00
2022-09-21T12:51:29.720Z,1.70
2022-09-21T12:52:29.381Z,2.20
2022-09-21T12:53:29.363Z,3.40
2022-09-21T12:54:29.366Z,1.30
2022-09-21T12:55:29.364Z,1.10
2022-09-21T12:56:29.366Z,4.00
2022-09-21T12:57:49.075Z,2.90
2022-09-21T12:58:30.314Z,1.70
2022-09-21T12:59:29.315Z,2.10
2022-09-21T13:00:29.303Z,3.10
2022-09-21T13:01:29.349Z,1.70
2022-09-21T13:02:29.715Z,1.40
2022-09-21T13:03:29.246Z,1.60
2022-09-21T13:04:29.259Z,2.10
2022-09-21T13:05:29.226Z,1.60
2022-09-21T13:06:29.238Z,1.30
2022-09-21T13:07:29.527Z,2.00
2022-09-21T13:08:29.197Z,2.20
2022-09-21T13:09:29.180Z,1.50
2022-09-21T13:10:29.502Z,2.90
2022-09-21T13:11:29.160Z,2.50
2022-09-21T13:12:29.172Z,2.80
2022-09-21T13:13:29.150Z,1.30
2022-09-21T13:14:29.142Z,2.20
2022-09-21T13:15:29.452Z,2.50
2022-09-21T13:16:29.163Z,1.20
2022-09-21T13:17:29.097Z,1.90
2022-09-21T13:18:32.505Z,2.90